aviador You're here:

KSRQ Decoded Metar

SARASOTA/BRADENT in FL, USA
Report Time2018-06-19 05:53:00
UTC Time2018-06-19 06:51:02
Flight Rules vfr VFR
Wind090° at 05 kt
W.Decomp.*RWY 14: 3.5 kt HW 3.5 kt LCW
RWY 04: 2.9 kt HW 4.1 kt RCW
W.Rank090° ranks 4
Current wind is below 090° avg. (6.8)
Visibility9999 m
Phenomena:N/A
Clouds:N/A
Expected CloudBase > 1,200 ft AGL from Temp-Dew spread
CeilingNone
Temp26°C (ISA +11)
Dew Point23°C (84% RH)
QNH1017 hPa
Density Alt1,578 ft
Elevation59 ft
Report Wrong Elevation
Raw Report
METAR KSRQ 190553Z AUTO 09005KT 10SM CLR 26/23 A3003 RMK AO2 SLP169
T02610228 10300 20261 58004=

Extra information for KSRQ:More info

Metar Taf Metar & Taf Last 4 Metars F.Rules Stats Wind Profile Meteogram Temp Stats Airport Information Weather charts Add Link Nearby VenuesMetar ALERT Operation Metar Decoded Social comments

AIRNAV info for KSRQ